createdAt,value
2019-03-08T00:00:37.802Z,10.50
2019-03-08T00:03:06.325Z,10.60
2019-03-08T00:05:34.844Z,10.70
2019-03-08T00:08:03.318Z,10.70
2019-03-08T00:10:31.835Z,10.60
2019-03-08T00:13:00.312Z,10.50
2019-03-08T00:15:28.827Z,10.50
2019-03-08T00:17:57.561Z,10.50
2019-03-08T00:20:25.996Z,10.50
2019-03-08T00:22:54.468Z,10.50
2019-03-08T00:25:23.009Z,10.50
2019-03-08T00:27:51.528Z,10.60
2019-03-08T00:30:19.970Z,10.60
2019-03-08T00:32:48.467Z,10.60
2019-03-08T00:35:17.052Z,10.70
2019-03-08T00:37:45.534Z,10.80
2019-03-08T00:40:14.984Z,10.80
2019-03-08T00:42:43.504Z,10.90
2019-03-08T00:45:16.316Z,10.90
2019-03-08T00:47:44.819Z,10.90
2019-03-08T00:50:13.791Z,11.00
2019-03-08T00:52:42.315Z,11.00
2019-03-08T00:55:11.996Z,10.90
2019-03-08T00:57:40.524Z,10.90
2019-03-08T01:00:13.943Z,10.90
2019-03-08T01:02:42.455Z,10.90
2019-03-08T01:05:12.251Z,10.90
2019-03-08T01:07:40.769Z,11.00
2019-03-08T01:10:18.362Z,10.90
2019-03-08T01:12:47.098Z,10.80
2019-03-08T01:15:19.524Z,10.80
2019-03-08T01:17:48.208Z,10.80
2019-03-08T01:20:20.475Z,10.80
2019-03-08T01:22:48.977Z,10.90
2019-03-08T01:25:17.950Z,10.80
2019-03-08T01:28:01.595Z,10.80
2019-03-08T01:30:31.259Z,10.70
2019-03-08T01:32:59.772Z,10.70
2019-03-08T01:35:28.451Z,10.60
2019-03-08T01:37:56.900Z,10.60
2019-03-08T01:40:27.508Z,10.50
2019-03-08T01:42:55.914Z,10.50
2019-03-08T01:45:24.500Z,10.50
2019-03-08T01:47:53.079Z,10.60
2019-03-08T01:50:21.698Z,10.60
2019-03-08T01:52:50.199Z,10.50
2019-03-08T01:55:19.435Z,10.50
2019-03-08T01:57:47.880Z,10.50
2019-03-08T02:00:21.057Z,10.60
2019-03-08T02:02:49.649Z,10.50
2019-03-08T02:05:19.014Z,10.50
2019-03-08T02:07:47.596Z,10.50
2019-03-08T02:10:17.057Z,10.60
2019-03-08T02:12:45.630Z,10.60
2019-03-08T02:15:18.859Z,10.60
2019-03-08T02:17:47.369Z,10.50
2019-03-08T02:20:18.210Z,10.40
2019-03-08T02:22:46.667Z,10.30
2019-03-08T02:25:15.107Z,10.30
2019-03-08T02:27:43.631Z,10.20
2019-03-08T02:30:16.818Z,10.20
2019-03-08T02:32:45.541Z,10.10
2019-03-08T02:35:15.875Z,10.10
2019-03-08T02:37:44.338Z,10.10
2019-03-08T02:40:38.902Z,10.20
2019-03-08T02:43:12.674Z,10.30
2019-03-08T02:45:41.182Z,10.20
2019-03-08T02:48:09.647Z,10.20
2019-03-08T02:50:38.150Z,10.10
2019-03-08T02:53:06.604Z,10.10
2019-03-08T02:55:35.579Z,10.00
2019-03-08T02:58:04.925Z,10.00
2019-03-08T03:00:36.509Z,9.90
2019-03-08T03:03:05.106Z,9.90
2019-03-08T03:05:33.884Z,9.90
2019-03-08T03:08:02.624Z,9.90
2019-03-08T03:10:31.131Z,9.90
2019-03-08T03:12:59.664Z,9.80
2019-03-08T03:15:28.176Z,9.80
2019-03-08T03:17:56.721Z,9.80
2019-03-08T03:20:25.224Z,9.80
2019-03-08T03:22:53.951Z,9.80
2019-03-08T03:25:22.584Z,9.90
2019-03-08T03:27:51.118Z,9.90
2019-03-08T03:30:20.669Z,9.90
2019-03-08T03:32:49.194Z,10.00
2019-03-08T03:35:17.709Z,10.00
2019-03-08T03:37:46.540Z,10.10
2019-03-08T03:40:16.411Z,10.10
2019-03-08T03:42:45.054Z,10.10
2019-03-08T03:45:18.531Z,10.00
2019-03-08T03:47:47.230Z,10.00
2019-03-08T03:50:15.973Z,9.90
2019-03-08T03:52:44.550Z,9.80
2019-03-08T03:55:15.323Z,9.80
2019-03-08T03:57:43.824Z,9.80
2019-03-08T04:00:22.470Z,9.70
2019-03-08T04:02:51.115Z,9.70
2019-03-08T04:05:19.645Z,9.60
2019-03-08T04:07:48.144Z,9.60
2019-03-08T04:10:17.424Z,9.70
2019-03-08T04:12:46.001Z,9.70
2019-03-08T04:15:19.850Z,9.80
2019-03-08T04:17:48.565Z,9.90
2019-03-08T04:20:18.242Z,10.10
2019-03-08T04:22:46.762Z,10.00
2019-03-08T04:25:15.526Z,10.00
2019-03-08T04:27:44.199Z,10.00
2019-03-08T04:30:15.288Z,10.00
2019-03-08T04:32:43.912Z,10.00
2019-03-08T04:35:12.459Z,10.00
2019-03-08T04:37:40.976Z,9.90
2019-03-08T04:40:11.247Z,9.90
2019-03-08T04:42:39.702Z,9.80
2019-03-08T04:45:13.517Z,9.80
2019-03-08T04:47:42.038Z,9.70
2019-03-08T04:50:12.745Z,9.70
2019-03-08T04:52:41.171Z,9.60
2019-03-08T04:55:17.841Z,9.70
2019-03-08T04:57:46.936Z,9.60
2019-03-08T05:00:16.997Z,9.60
2019-03-08T05:02:45.511Z,9.60
2019-03-08T05:05:14.402Z,9.60
2019-03-08T05:07:43.259Z,9.60
2019-03-08T05:10:14.688Z,9.60
2019-03-08T05:12:43.388Z,9.70
2019-03-08T05:15:12.151Z,9.70
2019-03-08T05:17:40.594Z,9.70
2019-03-08T05:20:11.067Z,9.70
2019-03-08T05:22:39.657Z,9.70
2019-03-08T05:25:09.908Z,9.70
2019-03-08T05:27:38.336Z,9.60
2019-03-08T05:30:19.150Z,9.60
2019-03-08T05:32:47.659Z,9.50
2019-03-08T05:35:16.188Z,9.50
2019-03-08T05:37:46.632Z,9.50
2019-03-08T05:40:15.700Z,9.60
2019-03-08T05:42:44.290Z,9.50
2019-03-08T05:45:16.621Z,9.50
2019-03-08T05:47:45.160Z,9.60
2019-03-08T05:50:13.833Z,9.60
2019-03-08T05:52:42.678Z,9.70
2019-03-08T05:55:12.019Z,9.70
2019-03-08T05:57:40.538Z,9.70
2019-03-08T06:00:32.866Z,9.80
2019-03-08T06:03:00.380Z,9.70
2019-03-08T06:05:28.817Z,9.70
2019-03-08T06:07:57.343Z,9.70
2019-03-08T06:10:27.799Z,9.60
2019-03-08T06:12:56.986Z,9.60
2019-03-08T06:15:25.474Z,9.70
2019-03-08T06:17:53.999Z,9.70
2019-03-08T06:20:22.439Z,9.70
2019-03-08T06:22:51.026Z,9.80
2019-03-08T06:25:19.479Z,9.80
2019-03-08T06:27:48.183Z,9.80
2019-03-08T06:30:16.692Z,9.80
2019-03-08T06:32:45.243Z,9.80
2019-03-08T06:35:13.674Z,9.90
2019-03-08T06:37:42.555Z,9.90
2019-03-08T06:40:12.751Z,10.00
2019-03-08T06:42:41.383Z,9.90
2019-03-08T06:45:12.668Z,10.00
2019-03-08T06:47:41.203Z,10.10
2019-03-08T06:50:11.852Z,10.30
2019-03-08T06:52:40.382Z,10.20
2019-03-08T06:55:11.298Z,10.20
2019-03-08T06:57:39.835Z,10.20
2019-03-08T07:00:13.307Z,10.20
2019-03-08T07:02:41.855Z,10.10
2019-03-08T07:05:10.362Z,10.10
2019-03-08T07:07:38.874Z,10.20
2019-03-08T07:10:08.767Z,10.30
2019-03-08T07:12:37.253Z,10.40
2019-03-08T07:15:06.842Z,10.40
2019-03-08T07:17:35.550Z,10.50
2019-03-08T07:20:07.164Z,10.60
2019-03-08T07:22:55.314Z,10.60
2019-03-08T07:25:50.916Z,10.70
2019-03-08T07:28:16.385Z,10.90
2019-03-08T07:30:58.371Z,11.30
2019-03-08T07:33:32.099Z,11.60
2019-03-08T07:36:18.563Z,11.80
2019-03-08T07:38:48.663Z,11.80
2019-03-08T07:41:34.749Z,11.80
2019-03-08T07:44:04.867Z,11.80
2019-03-08T07:46:47.562Z,11.80
2019-03-08T07:49:29.424Z,11.70
2019-03-08T07:52:14.475Z,11.60
2019-03-08T07:54:53.853Z,11.30
2019-03-08T07:57:40.327Z,11.10
2019-03-08T08:00:24.959Z,10.80
2019-03-08T08:03:03.330Z,10.70
2019-03-08T08:05:33.136Z,10.50
2019-03-08T08:08:03.280Z,10.50
2019-03-08T08:10:33.368Z,10.50
2019-03-08T08:13:03.542Z,10.50
2019-03-08T08:15:36.591Z,10.50
2019-03-08T08:18:06.994Z,10.60
2019-03-08T08:20:53.255Z,10.70
2019-03-08T08:23:34.348Z,10.70
2019-03-08T08:26:04.364Z,10.80
2019-03-08T08:28:49.500Z,10.90
2019-03-08T08:31:27.380Z,10.90
2019-03-08T08:33:59.968Z,11.00
2019-03-08T08:36:32.969Z,11.10
2019-03-08T08:39:09.083Z,11.20
2019-03-08T08:41:39.176Z,11.30
2019-03-08T08:44:09.337Z,11.30
2019-03-08T08:46:52.002Z,11.40
2019-03-08T08:49:24.564Z,11.40
2019-03-08T08:52:12.913Z,11.40
2019-03-08T08:54:43.288Z,11.30
2019-03-08T08:57:28.171Z,11.30
2019-03-08T09:00:13.914Z,11.30
2019-03-08T09:03:00.561Z,11.30
2019-03-08T09:05:36.668Z,11.30
2019-03-08T09:08:09.658Z,11.30
2019-03-08T09:10:42.853Z,11.40
2019-03-08T09:13:12.919Z,11.40
2019-03-08T09:15:43.094Z,11.40
2019-03-08T09:18:31.284Z,11.30
2019-03-08T09:21:01.767Z,11.20
2019-03-08T09:23:38.086Z,11.10
2019-03-08T09:26:08.286Z,11.00
2019-03-08T09:28:53.631Z,10.90
2019-03-08T09:31:25.194Z,10.80
2019-03-08T09:34:01.063Z,10.60
2019-03-08T09:36:47.463Z,10.40
2019-03-08T09:39:20.415Z,10.20
2019-03-08T09:41:50.515Z,10.10
2019-03-08T09:44:20.662Z,9.80
2019-03-08T09:46:53.441Z,9.70
2019-03-08T09:49:29.506Z,9.60
2019-03-08T09:52:08.636Z,9.50
2019-03-08T09:54:47.503Z,9.60
2019-03-08T09:57:34.222Z,9.60
2019-03-08T10:00:10.427Z,9.60
2019-03-08T10:02:40.539Z,9.50
2019-03-08T10:05:16.264Z,9.40
2019-03-08T10:07:52.138Z,9.40
2019-03-08T10:10:31.163Z,9.50
2019-03-08T10:13:12.923Z,9.60
2019-03-08T10:15:42.999Z,9.60
2019-03-08T10:18:19.171Z,9.60
2019-03-08T10:21:01.559Z,9.60
2019-03-08T10:23:34.197Z,9.60
2019-03-08T10:26:04.543Z,9.60
2019-03-08T10:28:43.775Z,9.70
2019-03-08T10:31:16.523Z,9.80
2019-03-08T10:33:58.679Z,9.90
2019-03-08T10:36:37.528Z,9.90
2019-03-08T10:39:26.191Z,9.90
2019-03-08T10:42:02.243Z,10.00
2019-03-08T10:44:37.393Z,9.90
2019-03-08T10:47:19.648Z,10.00
2019-03-08T10:49:55.961Z,9.90
2019-03-08T10:52:26.819Z,10.00
2019-03-08T10:55:08.912Z,10.10
2019-03-08T10:57:47.783Z,10.20
2019-03-08T11:00:34.042Z,10.40
2019-03-08T11:03:12.997Z,10.50
2019-03-08T11:05:45.914Z,10.50
2019-03-08T11:08:16.800Z,10.50
2019-03-08T11:11:06.451Z,10.40
2019-03-08T11:13:43.475Z,10.40
2019-03-08T11:16:18.107Z,10.30
2019-03-08T11:18:48.213Z,10.20
2019-03-08T11:21:36.978Z,10.10
2019-03-08T11:24:09.635Z,10.00
2019-03-08T11:27:04.892Z,10.10
2019-03-08T11:29:47.021Z,10.10
2019-03-08T11:32:23.094Z,10.30
2019-03-08T11:34:52.303Z,10.60
2019-03-08T11:37:25.238Z,10.80
2019-03-08T11:39:55.411Z,11.00
2019-03-08T11:42:25.487Z,11.20
2019-03-08T11:45:11.819Z,11.30
2019-03-08T11:47:47.883Z,11.40
2019-03-08T11:50:17.976Z,11.50
2019-03-08T11:52:53.799Z,11.60
2019-03-08T11:55:23.872Z,11.60
2019-03-08T11:57:53.987Z,11.50
2019-03-08T12:00:27.311Z,11.50
2019-03-08T12:03:06.711Z,11.40
2019-03-08T12:05:42.643Z,11.30
2019-03-08T12:08:12.883Z,11.30
2019-03-08T12:10:52.287Z,11.20
2019-03-08T12:13:25.135Z,11.30
2019-03-08T12:16:06.977Z,11.40
2019-03-08T12:18:37.143Z,11.60
2019-03-08T12:21:25.331Z,11.70
2019-03-08T12:24:07.227Z,11.80
2019-03-08T12:26:40.010Z,12.10
2019-03-08T12:29:12.947Z,12.30
2019-03-08T12:31:49.260Z,12.50
2019-03-08T12:34:25.420Z,12.90
2019-03-08T12:36:55.582Z,13.20
2019-03-08T12:39:38.670Z,13.40
2019-03-08T12:42:11.263Z,13.50
2019-03-08T12:44:44.094Z,13.50
2019-03-08T12:47:29.151Z,13.40
2019-03-08T12:49:59.544Z,13.40
2019-03-08T12:52:29.703Z,13.30
2019-03-08T12:55:05.793Z,13.10
2019-03-08T12:57:47.955Z,12.90
2019-03-08T13:00:33.921Z,12.80
2019-03-08T13:03:09.963Z,12.90
2019-03-08T13:05:56.158Z,12.90
2019-03-08T13:08:32.330Z,13.00
2019-03-08T13:11:00.927Z,13.20
2019-03-08T13:13:29.439Z,13.40
2019-03-08T13:15:58.707Z,13.60
2019-03-08T13:18:28.285Z,13.80
2019-03-08T13:20:56.890Z,13.80
2019-03-08T13:23:25.401Z,13.80
2019-03-08T13:25:53.927Z,13.90
2019-03-08T13:28:22.362Z,13.90
2019-03-08T13:30:50.905Z,13.90
2019-03-08T13:33:19.809Z,13.90
2019-03-08T13:35:48.264Z,13.90
2019-03-08T13:38:16.779Z,13.80
2019-03-08T13:40:45.258Z,13.60
2019-03-08T13:43:13.863Z,13.70
2019-03-08T13:45:42.394Z,14.10
2019-03-08T13:48:11.113Z,14.60
2019-03-08T13:50:39.785Z,15.40
2019-03-08T13:53:08.295Z,16.00
2019-03-08T13:55:36.862Z,16.60
2019-03-08T13:58:05.341Z,17.10
2019-03-08T14:00:33.872Z,17.30
2019-03-08T14:03:02.793Z,16.90
2019-03-08T14:05:31.405Z,16.40
2019-03-08T14:07:59.910Z,16.00
2019-03-08T14:10:28.479Z,15.50
2019-03-08T14:12:56.986Z,15.30
2019-03-08T14:15:25.578Z,15.30
2019-03-08T14:17:54.303Z,15.20
2019-03-08T14:20:27.062Z,15.10
2019-03-08T14:22:55.663Z,14.70
2019-03-08T14:25:24.184Z,14.40
2019-03-08T14:27:52.697Z,14.20
2019-03-08T14:30:23.814Z,14.10
2019-03-08T14:32:52.768Z,13.80
2019-03-08T14:35:21.624Z,13.50
2019-03-08T14:37:52.390Z,13.20
2019-03-08T14:40:24.999Z,13.00
2019-03-08T14:42:58.047Z,12.90
2019-03-08T14:45:28.195Z,12.80
2019-03-08T14:47:56.711Z,12.80
2019-03-08T14:50:25.227Z,12.70
2019-03-08T14:52:55.274Z,12.50
2019-03-08T14:55:23.958Z,12.50
2019-03-08T14:57:55.339Z,12.60
2019-03-08T15:00:25.476Z,12.70
2019-03-08T15:02:53.331Z,12.90
2019-03-08T15:05:21.912Z,13.10
2019-03-08T15:07:50.819Z,13.60
2019-03-08T15:10:19.896Z,14.20
2019-03-08T15:12:49.328Z,15.10
2019-03-08T15:15:18.241Z,16.10
2019-03-08T15:17:49.724Z,17.10
2019-03-08T15:20:20.446Z,17.50
2019-03-08T15:22:49.463Z,17.60
2019-03-08T15:25:18.032Z,17.30
2019-03-08T15:27:46.543Z,17.00
2019-03-08T15:30:19.095Z,16.70
2019-03-08T15:32:48.871Z,16.30
2019-03-08T15:35:17.923Z,16.10
2019-03-08T15:37:46.565Z,15.90
2019-03-08T15:40:17.993Z,15.80
2019-03-08T15:42:46.515Z,16.00
2019-03-08T15:45:15.503Z,16.30
2019-03-08T15:47:44.607Z,16.60
2019-03-08T15:50:18.143Z,16.70
2019-03-08T15:52:46.853Z,16.50
2019-03-08T15:55:15.515Z,16.40
2019-03-08T15:57:43.984Z,16.00
2019-03-08T16:00:22.328Z,15.60
2019-03-08T16:02:51.253Z,15.30
2019-03-08T16:05:23.937Z,14.80
2019-03-08T16:07:51.039Z,14.60
2019-03-08T16:10:21.121Z,14.30
2019-03-08T16:12:49.807Z,14.10
2019-03-08T16:15:18.399Z,14.00
2019-03-08T16:17:47.131Z,13.80
2019-03-08T16:20:20.012Z,13.60
2019-03-08T16:22:48.672Z,13.40
2019-03-08T16:25:17.750Z,13.20
2019-03-08T16:27:46.296Z,12.90
2019-03-08T16:30:31.199Z,12.70
2019-03-08T16:33:04.482Z,12.60
2019-03-08T16:35:34.395Z,12.30
2019-03-08T16:38:20.444Z,11.90
2019-03-08T16:40:50.398Z,11.60
2019-03-08T16:43:37.040Z,11.30
2019-03-08T16:46:23.427Z,11.20
2019-03-08T16:48:59.501Z,10.90
2019-03-08T16:51:45.871Z,10.70
2019-03-08T16:54:21.516Z,10.70
2019-03-08T16:57:08.140Z,10.80
2019-03-08T16:59:38.299Z,10.90
2019-03-08T17:02:11.444Z,11.00
2019-03-08T17:04:43.995Z,11.00
2019-03-08T17:07:14.101Z,11.10
2019-03-08T17:09:53.225Z,11.30
2019-03-08T17:12:35.413Z,11.30
2019-03-08T17:15:10.083Z,11.40
2019-03-08T17:17:43.144Z,11.40
2019-03-08T17:20:26.111Z,11.50
2019-03-08T17:22:59.514Z,11.50
2019-03-08T17:25:35.350Z,11.60
2019-03-08T17:28:05.431Z,11.60
2019-03-08T17:30:38.219Z,11.50
2019-03-08T17:33:24.698Z,11.30
2019-03-08T17:35:54.791Z,11.10
2019-03-08T17:38:27.626Z,10.90
2019-03-08T17:41:03.748Z,10.80
2019-03-08T17:43:36.467Z,10.80
2019-03-08T17:46:24.963Z,10.80
2019-03-08T17:48:55.055Z,11.00
2019-03-08T17:51:25.159Z,11.10
2019-03-08T17:53:57.671Z,11.20
2019-03-08T17:56:33.747Z,11.20
2019-03-08T17:59:03.927Z,11.20
2019-03-08T18:01:36.735Z,11.20
2019-03-08T18:04:18.711Z,11.30
2019-03-08T18:06:54.558Z,11.30
2019-03-08T18:09:41.158Z,11.20
2019-03-08T18:12:27.585Z,11.20
2019-03-08T18:14:57.756Z,11.30
2019-03-08T18:17:30.362Z,11.30
2019-03-08T18:20:00.462Z,11.40
2019-03-08T18:22:39.446Z,11.50
2019-03-08T18:25:21.542Z,11.60
2019-03-08T18:27:57.790Z,11.60
2019-03-08T18:30:33.742Z,11.60
2019-03-08T18:33:13.099Z,11.60
2019-03-08T18:35:44.188Z,11.60
2019-03-08T18:38:32.762Z,11.60
2019-03-08T18:41:15.076Z,11.70
2019-03-08T18:43:47.958Z,11.70
2019-03-08T18:46:18.127Z,11.70
2019-03-08T18:48:54.379Z,11.60
2019-03-08T18:51:33.725Z,11.50
2019-03-08T18:54:12.527Z,11.60
2019-03-08T18:56:59.043Z,11.60
2019-03-08T18:59:41.462Z,11.60
2019-03-08T19:02:14.910Z,11.60
2019-03-08T19:04:50.903Z,11.70
2019-03-08T19:07:30.319Z,11.70
2019-03-08T19:10:03.261Z,11.70
2019-03-08T19:12:36.132Z,11.80
2019-03-08T19:15:15.047Z,11.80
2019-03-08T19:18:00.252Z,11.80
2019-03-08T19:20:33.094Z,11.80
2019-03-08T19:23:18.606Z,11.80
2019-03-08T19:25:51.400Z,11.80
2019-03-08T19:28:30.531Z,11.80
2019-03-08T19:31:00.621Z,11.90
2019-03-08T19:33:30.740Z,11.90
2019-03-08T19:36:03.359Z,11.90
2019-03-08T19:38:49.656Z,11.90
2019-03-08T19:41:23.115Z,12.00
2019-03-08T19:43:56.378Z,12.00
2019-03-08T19:46:35.823Z,12.00
2019-03-08T19:49:06.158Z,12.00
2019-03-08T19:51:36.260Z,12.00
2019-03-08T19:54:18.427Z,12.00
2019-03-08T19:56:48.552Z,12.00
2019-03-08T19:59:18.874Z,12.00
2019-03-08T20:01:48.973Z,12.00
2019-03-08T20:04:22.077Z,12.00
2019-03-08T20:07:08.163Z,12.00
2019-03-08T20:10:06.491Z,12.00
2019-03-08T20:12:48.759Z,12.00
2019-03-08T20:15:18.844Z,11.90
2019-03-08T20:17:48.936Z,11.80
2019-03-08T20:20:19.015Z,11.80
2019-03-08T20:22:49.110Z,11.70
2019-03-08T20:25:31.335Z,11.80
2019-03-08T20:28:04.151Z,11.80
2019-03-08T20:30:37.033Z,11.80
2019-03-08T20:33:19.043Z,11.70
2019-03-08T20:35:51.916Z,11.60
2019-03-08T20:38:27.995Z,11.60
2019-03-08T20:40:58.071Z,11.60
2019-03-08T20:43:47.524Z,11.60
2019-03-08T20:46:17.592Z,11.50
2019-03-08T20:48:46.049Z,11.40
2019-03-08T20:51:14.555Z,11.40
2019-03-08T20:53:43.021Z,11.40
2019-03-08T20:56:11.457Z,11.30
2019-03-08T20:58:39.932Z,11.30
2019-03-08T21:01:08.535Z,11.20
2019-03-08T21:03:37.365Z,11.10
2019-03-08T21:06:05.826Z,11.10
2019-03-08T21:08:34.322Z,11.20
2019-03-08T21:11:02.755Z,11.20
2019-03-08T21:13:31.227Z,11.30
2019-03-08T21:15:59.667Z,11.30
2019-03-08T21:18:28.303Z,11.40
2019-03-08T21:20:56.731Z,11.40
2019-03-08T21:23:25.168Z,11.40
2019-03-08T21:25:53.800Z,11.40
2019-03-08T21:28:22.307Z,11.40
2019-03-08T21:30:51.251Z,11.40
2019-03-08T21:33:19.717Z,11.40
2019-03-08T21:35:48.188Z,11.40
2019-03-08T21:38:16.716Z,11.50
2019-03-08T21:40:45.243Z,11.50
2019-03-08T21:43:13.679Z,11.50
2019-03-08T21:45:42.419Z,11.50
2019-03-08T21:48:11.775Z,11.50
2019-03-08T21:50:40.297Z,11.50
2019-03-08T21:53:08.737Z,11.50
2019-03-08T21:55:37.192Z,11.60
2019-03-08T21:58:05.649Z,11.60
2019-03-08T22:00:34.129Z,11.60
2019-03-08T22:03:02.623Z,11.60
2019-03-08T22:05:35.627Z,11.60
2019-03-08T22:08:04.131Z,11.60
2019-03-08T22:10:34.224Z,11.70
2019-03-08T22:13:03.840Z,11.80
2019-03-08T22:15:32.296Z,11.70
2019-03-08T22:18:00.737Z,11.70
2019-03-08T22:20:29.190Z,11.70
2019-03-08T22:22:57.725Z,11.60
2019-03-08T22:25:26.382Z,11.60
2019-03-08T22:27:54.834Z,11.60
2019-03-08T22:30:23.389Z,11.50
2019-03-08T22:32:51.963Z,11.50
2019-03-08T22:35:20.487Z,11.50
2019-03-08T22:37:48.941Z,11.40
2019-03-08T22:40:17.460Z,11.40
2019-03-08T22:42:45.906Z,11.40
2019-03-08T22:45:14.588Z,11.30
2019-03-08T22:47:43.095Z,11.20
2019-03-08T22:50:13.395Z,11.20
2019-03-08T22:52:41.993Z,11.20
2019-03-08T22:55:12.487Z,11.20
2019-03-08T22:57:41.012Z,11.20
2019-03-08T23:00:15.379Z,11.20
2019-03-08T23:02:43.935Z,11.30
2019-03-08T23:05:12.448Z,11.30
2019-03-08T23:07:40.908Z,11.30
2019-03-08T23:10:11.215Z,11.30
2019-03-08T23:12:39.669Z,11.40
2019-03-08T23:15:09.210Z,11.40
2019-03-08T23:17:37.663Z,11.50
2019-03-08T23:20:08.463Z,11.40
2019-03-08T23:22:36.940Z,11.50
2019-03-08T23:25:06.197Z,11.60
2019-03-08T23:27:36.354Z,11.50
2019-03-08T23:30:08.799Z,11.40
2019-03-08T23:32:38.327Z,11.30
2019-03-08T23:35:08.314Z,11.20
2019-03-08T23:37:36.836Z,11.10
2019-03-08T23:40:07.482Z,11.10
2019-03-08T23:42:35.979Z,11.20
2019-03-08T23:45:06.864Z,11.30
2019-03-08T23:47:35.329Z,11.40
2019-03-08T23:50:04.943Z,11.40
2019-03-08T23:52:33.460Z,11.40
2019-03-08T23:55:01.902Z,11.30
2019-03-08T23:57:30.444Z,11.30
2019-03-08T23:59:58.944Z,11.30
